Strona główna
METAR-TAF:

METAR-TAF

Lotnisko :

Port lotniczy Marka

Amman, Jordania

Szerokość geograficzna: 31-59N, Długość geograficzna: 035-59E, wysokość: 767 m

Aktualna obserwacja pogody

Raport powstał 53 minut temu, godzina 11:00 UTC
Wiatr 2 kt od zachodnio-północny zachód
Temperatura 14°C
Wilgotność 51%
Ciśnienie 1021 hPa
Widzialność: 5000 m
Rozproszone chmury na wysokości 3500 ft
zmętnienie

METAR: OJAM 161100Z 30002KT 5000 HZ SCT035 14/04 Q1021 NOSIG

czas: 13:53 (11:53 UTC)

Prognoza

Raport powstał 1 godzina i 47 minut temu, godzina 10:06 UTC
Prognoza ważna od 16 godzina 12 UTC do 17 godzina 18 UTC
Wiatr 6 kt od północno-północny wschód
Widzialność: 6000 m
Mało chmury na wysokości 3000 ft
Przejściowo
od 17 godzina 02 UTC do 17 godzina 06 UTC
Wiatr 1 kt z kierunków zmiennych
Widzialność: 3000 m
zamglenie
Stopniowe zmiany
od 17 godzina 06 UTC do 17 godzina 08 UTC
Wiatr 8 kt od zachód

TAF: OJAM 161006Z 1612/1718 03006KT 6000 FEW030 TEMPO 1702/1706 VRB01KT 3000 BR BECMG 1706/1708 28008KT

Obserwacja i prognoza pogody dla ponad 4000 lotnisk (raport METAR i TAF).

Dostępne stacje oznaczono żółtymi i czerwonymi punktami na mapie.

Najedź kursorem aby zobaczyć nazwę stacji.

Kliknij aby zobaczyć obserwacje i prognozy pogody.

Aby zmienić mapę: kliknij na zielony przycisk z czarnym krzyżykiem, aby powiększyć; na zielony przycisk z myślnikiem, aby pomniejszyć; na zielone strzałki, aby przejść do map sąsiednich.


METAR-TAF: